createdAt,value
2023-05-17T00:00:54.436Z,1.90
2023-05-17T00:03:22.697Z,2.85
2023-05-17T00:05:51.062Z,2.30
2023-05-17T00:08:19.359Z,2.10
2023-05-17T00:10:47.671Z,2.90
2023-05-17T00:13:16.059Z,2.35
2023-05-17T00:15:44.372Z,2.30
2023-05-17T00:18:12.730Z,2.35
2023-05-17T00:20:41.119Z,2.58
2023-05-17T00:23:09.443Z,2.00
2023-05-17T00:25:37.732Z,2.13
2023-05-17T00:28:06.189Z,2.33
2023-05-17T00:30:35.183Z,2.38
2023-05-17T00:33:05.212Z,2.35
2023-05-17T00:35:33.592Z,2.40
2023-05-17T00:38:01.968Z,2.00
2023-05-17T00:40:32.017Z,1.50
2023-05-17T00:43:00.300Z,3.28
2023-05-17T00:45:29.014Z,2.72
2023-05-17T00:47:57.588Z,2.10
2023-05-17T00:50:25.955Z,3.90
2023-05-17T00:52:54.613Z,3.30
2023-05-17T00:55:22.966Z,3.28
2023-05-17T00:57:51.398Z,3.08
2023-05-17T01:00:19.798Z,2.80
2023-05-17T01:02:48.836Z,2.58
2023-05-17T01:05:17.254Z,3.03
2023-05-17T01:07:45.529Z,2.47
2023-05-17T01:10:16.452Z,3.50
2023-05-17T01:13:04.171Z,2.25
2023-05-17T01:15:37.079Z,2.53
2023-05-17T01:21:59.215Z,2.55
2023-05-17T01:24:36.146Z,2.70
2023-05-17T01:27:06.009Z,2.72
2023-05-17T01:29:38.488Z,2.70
2023-05-17T01:32:07.293Z,2.42
2023-05-17T01:34:36.009Z,2.95
2023-05-17T01:37:05.291Z,2.20
2023-05-17T01:39:33.728Z,2.75
2023-05-17T01:42:21.223Z,2.15
2023-05-17T01:45:07.644Z,3.50
2023-05-17T01:47:40.615Z,2.92
2023-05-17T01:50:09.749Z,2.00
2023-05-17T01:52:53.166Z,3.10
2023-05-17T01:55:53.212Z,2.80
2023-05-17T01:58:26.704Z,2.75
2023-05-17T02:00:57.979Z,2.58
2023-05-17T02:05:56.757Z,3.22
2023-05-17T02:08:25.608Z,2.78
2023-05-17T02:10:55.622Z,3.65
2023-05-17T02:13:24.419Z,2.60
2023-05-17T02:15:52.762Z,3.05
2023-05-17T02:18:21.930Z,2.70
2023-05-17T02:20:50.324Z,3.00
2023-05-17T02:23:18.648Z,2.83
2023-05-17T02:25:47.016Z,2.80
2023-05-17T02:28:15.344Z,1.98
2023-05-17T02:30:44.445Z,2.72
2023-05-17T02:33:12.839Z,2.95
2023-05-17T02:35:41.239Z,2.30
2023-05-17T02:38:09.486Z,2.63
2023-05-17T02:40:37.755Z,2.47
2023-05-17T02:43:06.269Z,2.63
2023-05-17T02:45:37.931Z,2.38
2023-05-17T02:48:07.182Z,3.08
2023-05-17T02:50:35.655Z,2.50
2023-05-17T02:53:04.206Z,2.95
2023-05-17T02:55:32.518Z,3.55
2023-05-17T02:58:00.798Z,2.80
2023-05-17T03:00:29.458Z,4.20
2023-05-17T03:02:58.201Z,3.65
2023-05-17T03:05:26.669Z,3.33
2023-05-17T03:07:55.158Z,3.22
2023-05-17T03:10:23.954Z,3.58
2023-05-17T03:12:52.572Z,3.35
2023-05-17T03:15:23.757Z,3.50
2023-05-17T03:17:52.686Z,2.75
2023-05-17T03:20:21.403Z,3.33
2023-05-17T03:22:50.689Z,3.15
2023-05-17T03:25:19.313Z,3.92
2023-05-17T03:27:47.992Z,3.03
2023-05-17T03:30:16.421Z,3.50
2023-05-17T03:32:46.724Z,2.90
2023-05-17T03:35:15.763Z,2.85
2023-05-17T03:37:47.748Z,3.13
2023-05-17T03:40:16.752Z,2.53
2023-05-17T03:42:45.796Z,3.22
2023-05-17T03:45:14.944Z,3.67
2023-05-17T03:47:43.448Z,3.03
2023-05-17T03:50:13.232Z,3.10
2023-05-17T03:52:42.121Z,3.08
2023-05-17T03:55:10.606Z,2.67
2023-05-17T03:57:38.995Z,3.40
2023-05-17T04:00:10.694Z,2.20
2023-05-17T04:02:43.023Z,2.78
2023-05-17T04:05:13.314Z,2.97
2023-05-17T04:07:43.897Z,2.85
2023-05-17T04:10:12.297Z,3.28
2023-05-17T04:12:40.644Z,2.53
2023-05-17T04:15:09.620Z,3.42
2023-05-17T04:17:43.654Z,2.72
2023-05-17T04:20:12.636Z,2.92
2023-05-17T04:22:41.333Z,2.72
2023-05-17T04:25:12.094Z,2.80
2023-05-17T04:27:40.659Z,3.40
2023-05-17T04:30:10.910Z,3.05
2023-05-17T04:32:39.813Z,2.72
2023-05-17T04:35:09.181Z,2.88
2023-05-17T04:37:40.214Z,3.10
2023-05-17T04:40:18.781Z,4.13
2023-05-17T04:42:48.715Z,3.58
2023-05-17T04:45:17.949Z,3.13
2023-05-17T04:47:46.467Z,3.28
2023-05-17T04:50:17.214Z,3.88
2023-05-17T04:52:49.013Z,3.15
2023-05-17T04:55:17.372Z,2.97
2023-05-17T04:57:46.839Z,4.72
2023-05-17T05:00:18.845Z,3.42
2023-05-17T05:02:55.767Z,3.03
2023-05-17T05:05:27.735Z,2.58
2023-05-17T05:07:57.750Z,2.38
2023-05-17T05:10:28.584Z,3.38
2023-05-17T05:15:27.119Z,3.05
2023-05-17T05:17:59.956Z,3.47
2023-05-17T05:20:28.484Z,3.35
2023-05-17T05:22:58.894Z,3.53
2023-05-17T05:25:28.853Z,3.58
2023-05-17T05:27:57.724Z,3.17
2023-05-17T05:30:26.265Z,2.95
2023-05-17T05:32:56.712Z,3.13
2023-05-17T05:35:30.171Z,2.90
2023-05-17T05:38:00.089Z,3.65
2023-05-17T05:40:29.428Z,2.30
2023-05-17T05:42:58.033Z,3.75
2023-05-17T05:45:26.432Z,3.63
2023-05-17T05:47:59.712Z,2.83
2023-05-17T05:50:29.182Z,2.80
2023-05-17T05:53:14.426Z,2.28
2023-05-17T05:55:49.523Z,2.22
2023-05-17T05:58:18.042Z,2.58
2023-05-17T06:00:47.864Z,1.85
2023-05-17T06:03:16.707Z,2.38
2023-05-17T06:05:45.388Z,2.00
2023-05-17T06:08:13.719Z,1.88
2023-05-17T06:10:42.128Z,1.70
2023-05-17T06:13:11.099Z,3.10
2023-05-17T06:15:40.533Z,2.00
2023-05-17T06:18:08.938Z,1.27
2023-05-17T06:20:37.362Z,1.58
2023-05-17T06:23:06.310Z,2.20
2023-05-17T06:25:34.740Z,1.83
2023-05-17T06:28:04.115Z,1.50
2023-05-17T06:30:33.620Z,1.30
2023-05-17T06:33:03.853Z,1.90
2023-05-17T06:35:43.732Z,1.80
2023-05-17T06:38:16.211Z,1.17
2023-05-17T06:40:44.527Z,1.75
2023-05-17T06:43:12.873Z,1.60
2023-05-17T06:45:41.163Z,1.40
2023-05-17T06:48:09.543Z,1.73
2023-05-17T06:50:37.953Z,1.30
2023-05-17T06:53:06.355Z,1.75
2023-05-17T06:55:34.639Z,1.58
2023-05-17T06:58:03.097Z,1.35
2023-05-17T07:00:31.904Z,1.67
2023-05-17T07:03:00.891Z,2.00
2023-05-17T07:05:30.839Z,2.35
2023-05-17T07:08:00.083Z,1.58
2023-05-17T07:10:28.660Z,2.33
2023-05-17T07:12:57.009Z,1.60
2023-05-17T07:15:25.417Z,1.98
2023-05-17T07:17:53.836Z,2.38
2023-05-17T07:20:22.219Z,1.30
2023-05-17T07:22:50.592Z,1.60
2023-05-17T07:25:21.418Z,2.95
2023-05-17T07:27:49.860Z,2.30
2023-05-17T07:30:18.144Z,1.73
2023-05-17T07:32:46.599Z,1.75
2023-05-17T07:35:15.333Z,1.55
2023-05-17T07:37:43.877Z,2.08
2023-05-17T07:40:12.643Z,1.67
2023-05-17T07:42:41.302Z,1.70
2023-05-17T07:45:11.677Z,2.03
2023-05-17T07:47:40.174Z,1.42
2023-05-17T07:50:08.951Z,1.27
2023-05-17T07:52:37.193Z,1.38
2023-05-17T07:55:06.236Z,1.50
2023-05-17T07:57:34.842Z,1.33
2023-05-17T08:00:04.293Z,1.42
2023-05-17T08:02:41.138Z,1.45
2023-05-17T08:05:10.193Z,1.42
2023-05-17T08:07:38.688Z,1.48
2023-05-17T08:10:07.565Z,1.50
2023-05-17T08:12:35.930Z,1.27
2023-05-17T08:15:04.635Z,1.38
2023-05-17T08:17:32.998Z,1.52
2023-05-17T08:20:01.738Z,1.20
2023-05-17T08:22:30.062Z,1.52
2023-05-17T08:24:58.316Z,1.63
2023-05-17T08:27:31.020Z,1.33
2023-05-17T08:29:59.802Z,1.52
2023-05-17T08:32:28.440Z,1.55
2023-05-17T08:34:57.852Z,1.33
2023-05-17T08:37:26.291Z,1.30
2023-05-17T08:39:54.652Z,1.40
2023-05-17T08:42:27.268Z,1.40
2023-05-17T08:44:56.434Z,1.45
2023-05-17T08:47:29.671Z,1.70
2023-05-17T08:50:04.324Z,1.50
2023-05-17T08:52:33.620Z,1.30
2023-05-17T08:55:06.212Z,1.15
2023-05-17T08:57:38.698Z,1.35
2023-05-17T09:00:13.438Z,1.50
2023-05-17T09:02:44.785Z,1.73
2023-05-17T09:05:15.235Z,1.23
2023-05-17T09:07:43.727Z,2.08
2023-05-17T09:10:13.558Z,1.98
2023-05-17T09:12:42.295Z,1.52
2023-05-17T09:15:19.195Z,1.67
2023-05-17T09:17:54.718Z,2.15
2023-05-17T09:20:35.233Z,2.58
2023-05-17T09:23:04.451Z,1.30
2023-05-17T09:25:33.218Z,1.60
2023-05-17T09:28:03.524Z,1.50
2023-05-17T09:30:33.353Z,1.73
2023-05-17T09:33:10.926Z,1.50
2023-05-17T09:35:40.008Z,1.73
2023-05-17T09:38:14.021Z,1.42
2023-05-17T09:40:47.005Z,1.60
2023-05-17T09:43:15.733Z,1.40
2023-05-17T09:45:44.083Z,1.42
2023-05-17T09:48:17.898Z,1.80
2023-05-17T09:50:50.942Z,1.70
2023-05-17T09:53:31.384Z,1.50
2023-05-17T09:56:06.516Z,1.23
2023-05-17T09:58:37.275Z,1.50
2023-05-17T10:01:07.366Z,1.30
2023-05-17T10:03:37.279Z,1.87
2023-05-17T10:06:13.365Z,1.60
2023-05-17T10:08:56.723Z,1.80
2023-05-17T10:11:34.285Z,1.80
2023-05-17T10:14:10.446Z,1.35
2023-05-17T10:16:39.599Z,1.70
2023-05-17T10:19:10.261Z,1.85
2023-05-17T10:21:39.236Z,1.73
2023-05-17T10:24:08.357Z,1.63
2023-05-17T10:26:38.539Z,1.60
2023-05-17T10:29:07.061Z,1.65
2023-05-17T10:31:39.034Z,1.50
2023-05-17T10:34:09.731Z,1.83
2023-05-17T10:36:39.683Z,1.60
2023-05-17T10:39:09.357Z,1.40
2023-05-17T10:41:42.319Z,1.80
2023-05-17T10:44:14.775Z,1.63
2023-05-17T10:46:56.103Z,1.50
2023-05-17T10:49:32.161Z,1.73
2023-05-17T10:52:17.947Z,1.50
2023-05-17T10:54:50.533Z,2.00
2023-05-17T10:57:38.979Z,1.58
2023-05-17T11:00:21.201Z,2.17
2023-05-17T11:02:50.779Z,1.75
2023-05-17T11:05:28.156Z,1.60
2023-05-17T11:08:19.209Z,1.77
2023-05-17T11:13:52.552Z,1.58
2023-05-17T11:16:36.743Z,1.70
2023-05-17T11:19:12.201Z,2.13
2023-05-17T11:21:48.301Z,1.92
2023-05-17T11:24:25.090Z,1.60
2023-05-17T11:26:56.334Z,1.60
2023-05-17T11:29:30.514Z,1.25
2023-05-17T11:31:58.990Z,1.55
2023-05-17T11:34:28.293Z,1.35
2023-05-17T11:36:56.904Z,1.33
2023-05-17T11:39:26.883Z,1.65
2023-05-17T11:41:56.942Z,1.15
2023-05-17T11:44:33.159Z,1.40
2023-05-17T11:47:09.590Z,1.60
2023-05-17T11:49:39.813Z,1.40
2023-05-17T11:52:08.857Z,1.15
2023-05-17T11:54:39.357Z,1.98
2023-05-17T11:57:07.963Z,1.80
2023-05-17T11:59:40.205Z,1.50
2023-05-17T12:02:08.827Z,1.70
2023-05-17T12:04:39.066Z,1.75
2023-05-17T12:07:10.890Z,1.10
2023-05-17T12:09:40.542Z,1.45
2023-05-17T12:12:09.617Z,1.60
2023-05-17T12:14:38.337Z,1.63
2023-05-17T12:17:09.607Z,1.40
2023-05-17T12:19:38.235Z,1.63
2023-05-17T12:22:08.400Z,1.02
2023-05-17T12:24:41.750Z,1.20
2023-05-17T12:27:10.771Z,1.73
2023-05-17T12:29:39.596Z,1.50
2023-05-17T12:32:09.700Z,1.58
2023-05-17T12:34:38.415Z,1.40
2023-05-17T12:37:10.352Z,1.30
2023-05-17T12:39:39.763Z,1.98
2023-05-17T12:42:08.979Z,1.58
2023-05-17T12:44:37.348Z,1.42
2023-05-17T12:47:05.803Z,1.30
2023-05-17T12:49:40.050Z,1.33
2023-05-17T12:52:10.076Z,1.30
2023-05-17T12:54:41.039Z,1.55
2023-05-17T12:57:15.906Z,1.60
2023-05-17T12:59:53.231Z,1.05
2023-05-17T13:02:22.258Z,1.40
2023-05-17T13:04:50.822Z,1.65
2023-05-17T13:07:24.028Z,1.33
2023-05-17T13:09:52.833Z,1.30
2023-05-17T13:12:23.853Z,1.60
2023-05-17T13:14:54.532Z,1.60
2023-05-17T13:20:10.457Z,1.65
2023-05-17T13:22:49.780Z,1.30
2023-05-17T13:25:18.368Z,1.55
2023-05-17T13:27:49.331Z,1.88
2023-05-17T13:30:17.835Z,1.55
2023-05-17T13:32:47.329Z,1.60
2023-05-17T13:35:16.033Z,2.40
2023-05-17T13:37:44.505Z,1.55
2023-05-17T13:40:13.642Z,1.45
2023-05-17T13:42:42.098Z,1.55
2023-05-17T13:45:12.410Z,1.05
2023-05-17T13:47:41.615Z,1.75
2023-05-17T13:50:11.989Z,1.55
2023-05-17T13:52:42.013Z,1.90
2023-05-17T13:55:10.365Z,1.27
2023-05-17T13:57:38.836Z,1.17
2023-05-17T14:00:08.142Z,1.25
2023-05-17T14:02:37.889Z,1.60
2023-05-17T14:05:07.989Z,1.50
2023-05-17T14:07:41.371Z,1.33
2023-05-17T14:10:12.212Z,1.63
2023-05-17T14:12:42.021Z,1.40
2023-05-17T14:15:11.168Z,1.52
2023-05-17T14:17:39.600Z,1.40
2023-05-17T14:20:10.357Z,1.05
2023-05-17T14:22:38.719Z,1.38
2023-05-17T14:25:08.279Z,1.25
2023-05-17T14:27:36.703Z,1.80
2023-05-17T14:30:05.942Z,1.45
2023-05-17T14:32:35.469Z,1.35
2023-05-17T14:35:04.276Z,1.17
2023-05-17T14:37:32.668Z,1.30
2023-05-17T14:42:32.901Z,1.67
2023-05-17T14:45:01.483Z,1.42
2023-05-17T14:47:29.859Z,1.27
2023-05-17T14:49:58.315Z,1.25
2023-05-17T14:52:26.666Z,1.30
2023-05-17T14:54:54.960Z,1.60
2023-05-17T14:57:23.395Z,1.25
2023-05-17T14:59:52.360Z,1.20
2023-05-17T15:02:20.761Z,1.30
2023-05-17T15:04:49.438Z,1.33
2023-05-17T15:07:17.841Z,1.23
2023-05-17T15:09:46.115Z,1.10
2023-05-17T15:12:14.450Z,1.15
2023-05-17T15:14:43.414Z,1.25
2023-05-17T15:17:11.772Z,1.30
2023-05-17T15:19:40.473Z,1.05
2023-05-17T15:22:09.460Z,1.50
2023-05-17T15:24:39.446Z,1.33
2023-05-17T15:27:08.069Z,1.40
2023-05-17T15:29:38.833Z,1.52
2023-05-17T15:32:07.727Z,1.55
2023-05-17T15:34:37.131Z,1.10
2023-05-17T15:37:05.908Z,1.20
2023-05-17T15:39:34.251Z,1.20
2023-05-17T15:42:03.725Z,1.40
2023-05-17T15:44:32.013Z,1.13
2023-05-17T15:47:02.945Z,1.58
2023-05-17T15:49:31.768Z,1.33
2023-05-17T15:52:00.139Z,1.27
2023-05-17T15:54:28.480Z,1.40
2023-05-17T15:56:56.921Z,1.33
2023-05-17T15:59:25.512Z,1.15
2023-05-17T16:01:53.885Z,1.60
2023-05-17T16:04:22.176Z,0.95
2023-05-17T16:06:50.635Z,1.20
2023-05-17T16:09:18.933Z,1.25
2023-05-17T16:11:47.254Z,1.60
2023-05-17T16:14:15.585Z,1.40
2023-05-17T16:16:45.174Z,1.30
2023-05-17T16:19:13.867Z,1.55
2023-05-17T16:21:42.380Z,1.15
2023-05-17T16:24:10.779Z,1.30
2023-05-17T16:26:39.516Z,1.40
2023-05-17T16:29:08.073Z,1.30
2023-05-17T16:31:36.514Z,1.05
2023-05-17T16:34:04.948Z,1.63
2023-05-17T16:36:33.887Z,1.55
2023-05-17T16:39:02.592Z,1.58
2023-05-17T16:41:33.326Z,1.63
2023-05-17T16:46:29.581Z,1.52
2023-05-17T16:48:57.879Z,1.73
2023-05-17T16:51:26.178Z,2.08
2023-05-17T16:53:54.515Z,1.48
2023-05-17T16:56:23.802Z,1.88
2023-05-17T16:58:52.339Z,1.40
2023-05-17T17:01:21.129Z,1.25
2023-05-17T17:03:49.581Z,1.25
2023-05-17T17:06:17.916Z,1.40
2023-05-17T17:08:46.547Z,1.30
2023-05-17T17:11:14.818Z,1.15
2023-05-17T17:13:43.499Z,1.00
2023-05-17T17:16:12.078Z,1.23
2023-05-17T17:18:40.509Z,1.35
2023-05-17T17:21:08.874Z,2.97
2023-05-17T17:23:37.602Z,1.70
2023-05-17T17:26:06.088Z,1.42
2023-05-17T17:28:34.769Z,1.30
2023-05-17T17:31:03.056Z,1.33
2023-05-17T17:33:32.041Z,1.20
2023-05-17T17:36:09.073Z,1.80
2023-05-17T17:38:37.719Z,1.35
2023-05-17T17:41:06.379Z,1.60
2023-05-17T17:43:34.704Z,1.80
2023-05-17T17:46:03.275Z,1.38
2023-05-17T17:48:31.636Z,1.30
2023-05-17T17:50:59.936Z,1.42
2023-05-17T17:53:28.809Z,1.40
2023-05-17T17:55:59.053Z,1.58
2023-05-17T17:58:27.298Z,1.33
2023-05-17T18:00:55.774Z,1.23
2023-05-17T18:03:24.194Z,1.27
2023-05-17T18:05:52.545Z,1.85
2023-05-17T18:08:20.888Z,1.70
2023-05-17T18:10:49.337Z,1.98
2023-05-17T18:37:39.591Z,1.50
2023-05-17T18:42:51.038Z,2.20
2023-05-17T18:45:19.738Z,2.17
2023-05-17T18:47:49.306Z,1.75
2023-05-17T18:50:17.801Z,2.88
2023-05-17T18:52:46.252Z,1.48
2023-05-17T18:55:14.865Z,1.98
2023-05-17T18:57:43.142Z,1.70
2023-05-17T19:00:12.104Z,1.70
2023-05-17T19:02:40.687Z,1.50
2023-05-17T19:05:09.112Z,1.83
2023-05-17T19:07:37.379Z,1.85
2023-05-17T19:10:06.460Z,1.92
2023-05-17T19:12:35.487Z,1.40
2023-05-17T19:15:04.608Z,1.30
2023-05-17T19:17:32.930Z,1.63
2023-05-17T19:20:01.451Z,1.27
2023-05-17T19:22:29.716Z,1.98
2023-05-17T19:24:58.057Z,1.40
2023-05-17T19:27:27.390Z,1.60
2023-05-17T19:29:57.634Z,1.50
2023-05-17T19:32:26.861Z,2.10
2023-05-17T19:34:55.335Z,1.92
2023-05-17T19:37:25.960Z,1.75
2023-05-17T19:39:54.319Z,1.50
2023-05-17T19:42:22.686Z,1.65
2023-05-17T19:44:51.014Z,1.70
2023-05-17T19:47:19.285Z,1.70
2023-05-17T19:49:47.568Z,1.77
2023-05-17T19:52:15.925Z,1.60
2023-05-17T19:54:45.171Z,2.08
2023-05-17T19:57:13.440Z,1.35
2023-05-17T19:59:41.985Z,1.52
2023-05-17T20:02:10.380Z,1.60
2023-05-17T20:04:38.823Z,1.77
2023-05-17T20:07:07.403Z,1.33
2023-05-17T20:09:36.294Z,1.60
2023-05-17T20:12:05.393Z,1.20
2023-05-17T20:14:33.816Z,1.50
2023-05-17T20:17:02.102Z,1.38
2023-05-17T20:19:30.558Z,1.60
2023-05-17T20:21:58.890Z,1.67
2023-05-17T20:24:29.074Z,1.60
2023-05-17T20:27:01.703Z,1.97
2023-05-17T20:29:30.142Z,1.30
2023-05-17T20:31:58.577Z,1.63
2023-05-17T20:34:29.541Z,1.52
2023-05-17T20:36:58.458Z,1.40
2023-05-17T20:39:28.356Z,1.60
2023-05-17T20:42:01.152Z,1.73
2023-05-17T20:44:29.515Z,1.75
2023-05-17T20:46:58.362Z,1.40
2023-05-17T20:49:26.783Z,2.25
2023-05-17T20:52:03.198Z,2.05
2023-05-17T20:54:31.632Z,1.85
2023-05-17T20:57:00.305Z,1.60
2023-05-17T20:59:28.668Z,1.95
2023-05-17T21:01:58.180Z,1.83
2023-05-17T21:04:26.729Z,1.65
2023-05-17T21:06:58.046Z,2.00
2023-05-17T21:09:27.009Z,1.67
2023-05-17T21:11:55.419Z,1.70
2023-05-17T21:14:23.706Z,2.35
2023-05-17T21:16:53.429Z,2.15
2023-05-17T21:19:21.789Z,1.77
2023-05-17T21:21:50.245Z,1.50
2023-05-17T21:24:18.628Z,1.63
2023-05-17T21:26:47.019Z,2.10
2023-05-17T21:29:15.305Z,1.85
2023-05-17T21:31:43.678Z,1.95
2023-05-17T21:34:12.037Z,1.58
2023-05-17T21:36:40.349Z,1.80
2023-05-17T21:39:08.624Z,2.33
2023-05-17T21:41:36.939Z,2.05
2023-05-17T21:44:05.539Z,1.60
2023-05-17T21:46:33.825Z,1.90
2023-05-17T21:49:02.079Z,1.73
2023-05-17T21:51:31.544Z,2.05
2023-05-17T21:54:02.502Z,1.70
2023-05-17T21:56:30.860Z,1.67
2023-05-17T21:58:59.148Z,1.77
2023-05-17T22:01:27.600Z,1.90
2023-05-17T22:03:56.126Z,1.67
2023-05-17T22:06:24.627Z,1.98
2023-05-17T22:08:52.941Z,1.63
2023-05-17T22:11:22.876Z,1.92
2023-05-17T22:13:51.757Z,1.88
2023-05-17T22:16:23.917Z,1.67
2023-05-17T22:18:52.579Z,1.40
2023-05-17T22:21:22.516Z,1.70
2023-05-17T22:23:51.024Z,2.17
2023-05-17T22:26:19.883Z,1.92
2023-05-17T22:28:48.633Z,2.25
2023-05-17T22:31:18.462Z,2.25
2023-05-17T22:33:47.189Z,1.40
2023-05-17T22:36:17.773Z,1.52
2023-05-17T22:38:46.666Z,2.28
2023-05-17T22:41:14.947Z,1.73
2023-05-17T22:43:43.282Z,2.10
2023-05-17T22:46:11.561Z,1.67
2023-05-17T22:48:40.529Z,1.70
2023-05-17T22:51:08.919Z,1.73
2023-05-17T22:53:37.184Z,1.77
2023-05-17T22:56:06.856Z,1.67
2023-05-17T22:58:35.140Z,1.67
2023-05-17T23:01:03.435Z,2.60
2023-05-17T23:03:32.247Z,1.95
2023-05-17T23:06:03.391Z,2.10
2023-05-17T23:08:32.416Z,1.40
2023-05-17T23:11:01.664Z,1.50
2023-05-17T23:13:29.948Z,2.08
2023-05-17T23:15:58.366Z,1.80
2023-05-17T23:18:27.485Z,2.15
2023-05-17T23:20:56.299Z,2.58
2023-05-17T23:23:24.569Z,1.65
2023-05-17T23:25:56.350Z,1.65
2023-05-17T23:28:25.593Z,1.92
2023-05-17T23:30:54.461Z,1.60
2023-05-17T23:33:22.714Z,2.00
2023-05-17T23:35:51.246Z,2.13
2023-05-17T23:38:19.522Z,1.73
2023-05-17T23:40:47.824Z,1.30
2023-05-17T23:43:16.246Z,2.50
2023-05-17T23:45:44.506Z,1.60
2023-05-17T23:48:15.986Z,1.70
2023-05-17T23:50:44.341Z,1.67
2023-05-17T23:53:12.665Z,1.70
2023-05-17T23:55:40.922Z,1.90
2023-05-17T23:58:09.424Z,2.40
